createdAt,value
2022-12-05T00:01:29.801Z,97852.78
2022-12-05T00:03:59.540Z,97855.50
2022-12-05T00:06:28.781Z,97863.38
2022-12-05T00:08:55.997Z,97859.94
2022-12-05T00:11:25.405Z,97865.38
2022-12-05T00:13:54.185Z,97877.69
2022-12-05T00:16:23.720Z,97876.72
2022-12-05T00:18:51.634Z,97876.19
2022-12-05T00:21:21.277Z,97875.00
2022-12-05T00:23:48.936Z,97873.75
2022-12-05T00:26:16.196Z,97882.63
2022-12-05T00:28:44.803Z,97873.50
2022-12-05T00:31:14.380Z,97874.72
2022-12-05T00:33:41.771Z,97880.16
2022-12-05T00:36:15.045Z,97884.09
2022-12-05T00:38:42.274Z,97878.41
2022-12-05T00:41:15.315Z,97882.09
2022-12-05T00:43:42.604Z,97889.25
2022-12-05T00:46:13.987Z,97886.28
2022-12-05T00:48:41.257Z,97892.69
2022-12-05T00:51:14.677Z,97887.50
2022-12-05T00:53:42.462Z,97883.78
2022-12-05T00:56:14.409Z,97890.44
2022-12-05T00:58:42.084Z,97881.59
2022-12-05T01:01:18.406Z,97890.22
2022-12-05T01:03:46.208Z,97882.56
2022-12-05T01:06:15.070Z,97891.44
2022-12-05T01:08:43.154Z,97895.38
2022-12-05T01:11:11.837Z,97895.88
2022-12-05T01:13:38.929Z,97896.34
2022-12-05T01:16:06.672Z,97888.97
2022-12-05T01:18:33.763Z,97892.94
2022-12-05T01:21:05.134Z,97889.72
2022-12-05T01:23:32.221Z,97892.69
2022-12-05T01:25:59.336Z,97892.97
2022-12-05T01:28:26.611Z,97895.19
2022-12-05T01:30:53.695Z,97886.31
2022-12-05T01:33:21.151Z,97884.81
2022-12-05T01:35:48.433Z,97874.47
2022-12-05T01:38:15.829Z,97881.13
2022-12-05T01:40:42.897Z,97890.03
2022-12-05T01:43:15.080Z,97894.72
2022-12-05T01:45:44.462Z,97897.44
2022-12-05T01:48:32.393Z,97893.75
2022-12-05T01:51:00.231Z,97900.19
2022-12-05T01:53:28.264Z,97893.50
2022-12-05T01:55:55.466Z,97891.78
2022-12-05T01:58:26.088Z,97893.00
2022-12-05T02:00:53.162Z,97903.41
2022-12-05T02:03:20.762Z,97896.00
2022-12-05T02:05:50.897Z,97900.69
2022-12-05T02:08:18.756Z,97901.91
2022-12-05T02:10:48.841Z,97901.66
2022-12-05T02:13:27.005Z,97902.41
2022-12-05T02:16:03.172Z,97898.44
2022-12-05T02:18:42.652Z,97892.75
2022-12-05T02:21:36.899Z,97906.81
2022-12-05T02:24:28.255Z,97910.75
2022-12-05T02:27:17.737Z,97906.81
2022-12-05T02:30:26.822Z,97904.56
2022-12-05T02:33:06.037Z,97902.59
2022-12-05T02:35:37.183Z,97896.72
2022-12-05T02:38:41.858Z,97900.63
2022-12-05T02:41:15.265Z,97900.16
2022-12-05T02:44:06.720Z,97911.47
2022-12-05T02:46:36.779Z,97905.81
2022-12-05T02:49:09.041Z,97901.63
2022-12-05T02:51:41.698Z,97899.88
2022-12-05T02:54:12.351Z,97901.88
2022-12-05T02:56:41.059Z,97897.19
2022-12-05T02:59:08.122Z,97899.19
2022-12-05T03:01:35.269Z,97911.28
2022-12-05T03:04:04.507Z,97899.47
2022-12-05T03:06:37.268Z,97902.41
2022-12-05T03:09:12.070Z,97904.88
2022-12-05T03:11:49.696Z,97904.41
2022-12-05T03:14:23.280Z,97903.41
2022-12-05T03:16:52.917Z,97911.03
2022-12-05T03:19:44.644Z,97909.06
2022-12-05T03:22:20.455Z,97899.69
2022-12-05T03:24:47.647Z,97910.78
2022-12-05T03:27:28.299Z,97907.34
2022-12-05T03:30:03.255Z,97915.69
2022-12-05T03:32:46.413Z,97911.28
2022-12-05T03:35:24.895Z,97915.22
2022-12-05T03:37:55.998Z,97916.22
2022-12-05T03:40:31.611Z,97916.94
2022-12-05T03:43:09.075Z,97914.97
2022-12-05T03:45:47.356Z,97905.81
2022-12-05T03:48:16.261Z,97907.03
2022-12-05T03:50:44.764Z,97905.09
2022-12-05T03:53:19.978Z,97911.75
2022-12-05T03:55:53.539Z,97911.75
2022-12-05T03:58:27.478Z,97906.84
2022-12-05T04:00:56.698Z,97913.75
2022-12-05T04:03:39.191Z,97910.53
2022-12-05T04:06:37.082Z,97915.97
2022-12-05T04:09:35.273Z,97922.13
2022-12-05T04:12:06.260Z,97929.03
2022-12-05T04:14:45.331Z,97924.84
2022-12-05T04:17:21.365Z,97931.53
2022-12-05T04:20:13.015Z,97930.78
2022-12-05T04:22:40.600Z,97938.19
2022-12-05T04:25:29.651Z,97941.88
2022-12-05T04:28:09.326Z,97942.09
2022-12-05T04:30:41.082Z,97945.06
2022-12-05T04:33:18.633Z,97945.03
2022-12-05T04:36:01.531Z,97959.56
2022-12-05T04:38:32.842Z,97959.28
2022-12-05T04:41:03.360Z,97955.09
2022-12-05T04:43:39.534Z,97958.03
2022-12-05T04:46:10.009Z,97960.22
2022-12-05T04:48:39.433Z,97956.25
2022-12-05T04:51:08.090Z,97959.94
2022-12-05T04:53:36.079Z,97961.19
2022-12-05T04:56:04.680Z,97967.09
2022-12-05T04:58:32.139Z,97976.47
2022-12-05T05:01:07.233Z,97975.19
2022-12-05T05:03:43.110Z,97974.41
2022-12-05T05:06:13.756Z,97968.47
2022-12-05T05:08:52.291Z,97968.94
2022-12-05T05:11:27.131Z,97973.06
2022-12-05T05:13:54.457Z,97978.75
2022-12-05T05:16:30.088Z,97977.94
2022-12-05T05:18:57.396Z,97985.84
2022-12-05T05:21:29.421Z,97988.53
2022-12-05T05:23:57.113Z,97997.66
2022-12-05T05:26:25.282Z,97991.47
2022-12-05T05:28:52.729Z,97995.69
2022-12-05T05:31:21.318Z,97991.94
2022-12-05T05:33:52.389Z,97994.88
2022-12-05T05:36:20.367Z,97997.72
2022-12-05T05:38:49.336Z,98003.06
2022-12-05T05:41:24.168Z,98007.69
2022-12-05T05:43:51.348Z,98009.84
2022-12-05T05:46:20.905Z,98019.69
2022-12-05T05:48:48.224Z,98018.44
2022-12-05T05:51:16.043Z,98018.44
2022-12-05T05:53:43.183Z,98024.63
2022-12-05T05:56:15.966Z,98018.75
2022-12-05T05:58:47.272Z,98021.66
2022-12-05T06:01:20.371Z,98023.88
2022-12-05T06:03:48.893Z,98030.72
2022-12-05T06:06:16.220Z,98039.06
2022-12-05T06:08:45.026Z,98034.34
2022-12-05T06:11:24.968Z,98036.31
2022-12-05T06:13:57.235Z,98037.50
2022-12-05T06:16:24.874Z,98040.22
2022-12-05T06:18:52.989Z,98044.63
2022-12-05T06:21:20.941Z,98045.63
2022-12-05T06:23:48.402Z,98037.06
2022-12-05T06:26:20.353Z,98040.03
2022-12-05T06:28:48.117Z,98034.59
2022-12-05T06:31:21.513Z,98042.25
2022-12-05T06:33:48.698Z,98038.06
2022-12-05T06:36:18.996Z,98043.00
2022-12-05T06:38:46.386Z,98035.34
2022-12-05T06:41:18.252Z,98051.13
2022-12-05T06:43:45.611Z,98042.72
2022-12-05T06:46:14.423Z,98058.00
2022-12-05T06:48:41.534Z,98061.75
2022-12-05T06:51:10.352Z,98072.84
2022-12-05T06:53:37.777Z,98083.19
2022-12-05T06:56:07.555Z,98076.03
2022-12-05T06:58:34.653Z,98072.28
2022-12-05T07:01:20.493Z,98074.00
2022-12-05T07:03:50.913Z,98074.75
2022-12-05T07:06:18.256Z,98074.00
2022-12-05T07:08:45.444Z,98075.97
2022-12-05T07:11:12.500Z,98083.09
2022-12-05T07:13:39.557Z,98079.84
2022-12-05T07:16:07.358Z,98078.59
2022-12-05T07:18:35.755Z,98071.94
2022-12-05T07:21:13.630Z,98073.81
2022-12-05T07:23:43.238Z,98077.75
2022-12-05T07:26:12.576Z,98066.22
2022-12-05T07:28:39.627Z,98076.28
2022-12-05T07:31:09.604Z,98077.75
2022-12-05T07:33:37.279Z,98077.75
2022-12-05T07:36:09.871Z,98066.19
2022-12-05T07:38:37.183Z,98067.44
2022-12-05T07:41:13.302Z,98072.19
2022-12-05T07:43:41.717Z,98070.78
2022-12-05T07:46:11.347Z,98060.72
2022-12-05T07:48:39.113Z,98068.09
2022-12-05T07:51:07.447Z,98079.19
2022-12-05T07:53:34.855Z,98077.78
2022-12-05T07:56:03.345Z,98076.81
2022-12-05T07:58:30.542Z,98076.16
2022-12-05T08:00:58.924Z,98079.09
2022-12-05T08:03:26.097Z,98085.06
2022-12-05T08:05:53.229Z,98086.56
2022-12-05T08:08:20.338Z,98092.72
2022-12-05T08:10:47.408Z,98090.28
2022-12-05T08:13:14.481Z,98089.34
2022-12-05T08:15:41.569Z,98092.31
2022-12-05T08:18:08.628Z,98099.22
2022-12-05T08:20:35.728Z,98097.25
2022-12-05T08:23:02.800Z,98097.50
2022-12-05T08:25:30.570Z,98088.88
2022-12-05T08:27:57.632Z,98098.78
2022-12-05T08:30:24.852Z,98098.06
2022-12-05T08:32:51.976Z,98096.41
2022-12-05T08:35:19.031Z,98105.28
2022-12-05T08:37:46.142Z,98108.97
2022-12-05T08:40:13.200Z,98108.78
2022-12-05T08:42:40.282Z,98103.88
2022-12-05T08:45:07.712Z,98108.06
2022-12-05T08:47:34.753Z,98104.34
2022-12-05T08:50:01.839Z,98117.44
2022-12-05T08:52:28.982Z,98115.13
2022-12-05T08:54:56.332Z,98106.50
2022-12-05T08:57:23.612Z,98116.09
2022-12-05T08:59:50.669Z,98113.88
2022-12-05T09:02:17.870Z,98120.03
2022-12-05T09:04:47.328Z,98123.81
2022-12-05T09:07:18.025Z,98126.84
2022-12-05T09:09:45.220Z,98128.09
2022-12-05T09:12:12.290Z,98128.38
2022-12-05T09:14:39.331Z,98126.19
2022-12-05T09:17:07.714Z,98129.16
2022-12-05T09:19:34.818Z,98134.91
2022-12-05T09:22:01.914Z,98133.97
2022-12-05T09:24:28.989Z,98142.84
2022-12-05T09:26:56.066Z,98149.78
2022-12-05T09:29:25.512Z,98150.56
2022-12-05T09:31:54.031Z,98147.66
2022-12-05T09:34:21.250Z,98150.38
2022-12-05T09:37:01.377Z,98144.00
2022-12-05T09:39:37.585Z,98142.28
2022-12-05T09:42:23.635Z,98147.72
2022-12-05T09:45:05.178Z,98148.47
2022-12-05T09:47:45.803Z,98142.06
2022-12-05T09:50:14.758Z,98159.84
2022-12-05T09:52:50.237Z,98154.19
2022-12-05T09:55:19.313Z,98151.75
2022-12-05T09:57:53.963Z,98149.06
2022-12-05T10:00:21.140Z,98144.63
2022-12-05T10:03:19.135Z,98150.59
2022-12-05T10:06:06.879Z,98151.34
2022-12-05T10:08:47.449Z,98161.97
2022-12-05T10:11:20.712Z,98154.06
2022-12-05T10:14:10.906Z,98159.78
2022-12-05T10:16:45.117Z,98153.13
2022-12-05T10:19:18.288Z,98152.88
2022-12-05T10:21:45.277Z,98139.59
2022-12-05T10:24:15.407Z,98139.34
2022-12-05T10:26:49.695Z,98149.25
2022-12-05T10:29:34.028Z,98150.72
2022-12-05T10:32:08.427Z,98146.56
2022-12-05T10:34:41.518Z,98142.41
2022-12-05T10:37:11.771Z,98140.94
2022-12-05T10:39:38.959Z,98137.72
2022-12-05T10:42:06.732Z,98131.06
2022-12-05T10:44:34.095Z,98141.22
2022-12-05T10:47:01.745Z,98140.47
2022-12-05T10:49:29.794Z,98133.81
2022-12-05T10:51:57.477Z,98139.28
2022-12-05T10:54:26.670Z,98138.28
2022-12-05T10:56:53.879Z,98134.06
2022-12-05T10:59:26.530Z,98138.53
2022-12-05T11:01:56.824Z,98135.06
2022-12-05T11:04:30.871Z,98144.94
2022-12-05T11:07:05.581Z,98134.34
2022-12-05T11:09:36.657Z,98141.53
2022-12-05T11:12:22.329Z,98133.59
2022-12-05T11:14:55.877Z,98143.72
2022-12-05T11:17:31.391Z,98142.72
2022-12-05T11:19:58.672Z,98146.91
2022-12-05T11:22:34.088Z,98144.19
2022-12-05T11:25:01.511Z,98145.66
2022-12-05T11:27:32.530Z,98154.09
2022-12-05T11:30:05.873Z,98147.66
2022-12-05T11:32:33.900Z,98152.63
2022-12-05T11:35:13.318Z,98157.56
2022-12-05T11:37:47.954Z,98155.09
2022-12-05T11:40:30.857Z,98157.31
2022-12-05T11:43:24.415Z,98150.13
2022-12-05T11:46:14.956Z,98144.19
2022-12-05T11:49:26.859Z,98150.09
2022-12-05T11:52:05.683Z,98143.69
2022-12-05T11:55:04.345Z,98145.16
2022-12-05T11:57:43.271Z,98146.66
2022-12-05T12:00:20.117Z,98151.81
2022-12-05T12:03:05.974Z,98149.31
2022-12-05T12:06:04.335Z,98149.31
2022-12-05T12:08:41.014Z,98152.78
2022-12-05T12:11:20.663Z,98158.91
2022-12-05T12:14:05.804Z,98152.22
2022-12-05T12:16:39.328Z,98150.47
2022-12-05T12:19:09.337Z,98148.00
2022-12-05T12:22:04.214Z,98149.03
2022-12-05T12:24:43.484Z,98146.31
2022-12-05T12:27:16.821Z,98147.78
2022-12-05T12:30:08.625Z,98143.34
2022-12-05T12:32:47.575Z,98145.13
2022-12-05T12:35:17.413Z,98146.06
2022-12-05T12:38:14.356Z,98146.56
2022-12-05T12:40:44.131Z,98146.53
2022-12-05T12:43:52.754Z,98148.72
2022-12-05T12:46:25.584Z,98150.44
2022-12-05T12:49:28.340Z,98140.78
2022-12-05T12:52:01.777Z,98144.75
2022-12-05T12:55:02.152Z,98146.22
2022-12-05T12:57:27.555Z,98140.53
2022-12-05T13:00:20.131Z,98145.47
2022-12-05T13:02:52.405Z,98146.47
2022-12-05T13:05:38.072Z,98149.19
2022-12-05T13:08:28.361Z,98151.16
2022-12-05T13:10:55.879Z,98148.94
2022-12-05T13:13:27.840Z,98154.34
2022-12-05T13:15:58.399Z,98152.38
2022-12-05T13:18:26.086Z,98141.03
2022-12-05T13:21:01.224Z,98134.63
2022-12-05T13:23:31.058Z,98137.78
2022-12-05T13:26:00.469Z,98143.72
2022-12-05T13:28:33.515Z,98137.53
2022-12-05T13:31:03.775Z,98139.31
2022-12-05T13:33:51.320Z,98138.81
2022-12-05T13:36:39.622Z,98131.91
2022-12-05T13:39:37.077Z,98147.25
2022-12-05T13:42:16.269Z,98149.47
2022-12-05T13:45:04.655Z,98146.28
2022-12-05T13:47:31.617Z,98153.44
2022-12-05T13:50:07.702Z,98157.88
2022-12-05T13:52:45.391Z,98160.84
2022-12-05T13:55:35.672Z,98154.91
2022-12-05T13:58:23.461Z,98153.66
2022-12-05T14:00:51.705Z,98160.09
2022-12-05T14:03:21.889Z,98155.41
2022-12-05T14:05:53.383Z,98155.91
2022-12-05T14:08:26.767Z,98165.28
2022-12-05T14:10:53.759Z,98158.59
2022-12-05T14:13:21.099Z,98154.38
2022-12-05T14:15:49.864Z,98157.81
2022-12-05T14:18:41.940Z,98154.56
2022-12-05T14:21:17.688Z,98139.75
2022-12-05T14:24:07.848Z,98154.25
2022-12-05T14:26:43.673Z,98154.75
2022-12-05T14:29:15.495Z,98155.75
2022-12-05T14:32:02.539Z,98156.28
2022-12-05T14:34:33.242Z,98152.34
2022-12-05T14:37:15.283Z,98147.66
2022-12-05T14:39:53.449Z,98151.84
2022-12-05T14:42:39.159Z,98147.88
2022-12-05T14:45:26.830Z,98152.09
2022-12-05T14:47:56.336Z,98152.56
2022-12-05T14:50:44.782Z,98149.56
2022-12-05T14:53:15.108Z,98143.69
2022-12-05T14:55:45.703Z,98133.03
2022-12-05T14:58:51.676Z,98135.50
2022-12-05T15:01:42.065Z,98143.91
2022-12-05T15:04:12.529Z,98140.44
2022-12-05T15:06:50.427Z,98145.88
2022-12-05T15:09:45.141Z,98148.59
2022-12-05T15:12:28.404Z,98153.28
2022-12-05T15:15:20.072Z,98155.25
2022-12-05T15:17:50.787Z,98161.66
2022-12-05T15:20:23.251Z,98160.13
2022-12-05T15:22:50.506Z,98166.34
2022-12-05T15:25:29.955Z,98171.47
2022-12-05T15:28:00.259Z,98173.19
2022-12-05T15:30:29.147Z,98175.91
2022-12-05T15:32:59.646Z,98178.38
2022-12-05T15:35:29.508Z,98183.75
2022-12-05T15:38:00.034Z,98187.44
2022-12-05T15:40:37.071Z,98192.88
2022-12-05T15:43:27.343Z,98192.69
2022-12-05T15:46:24.498Z,98196.34
2022-12-05T15:48:53.054Z,98202.97
2022-12-05T15:51:21.885Z,98198.75
2022-12-05T15:54:08.929Z,98207.16
2022-12-05T15:56:40.862Z,98202.41
2022-12-05T15:59:32.979Z,98206.59
2022-12-05T16:02:22.232Z,98207.03
2022-12-05T16:04:59.866Z,98206.78
2022-12-05T16:07:29.504Z,98217.91
2022-12-05T16:10:00.724Z,98216.91
2022-12-05T16:12:35.546Z,98216.16
2022-12-05T16:15:05.762Z,98203.06
2022-12-05T16:17:53.321Z,98220.09
2022-12-05T16:20:24.477Z,98223.28
2022-12-05T16:22:54.645Z,98222.06
2022-12-05T16:25:36.326Z,98217.38
2022-12-05T16:28:12.470Z,98204.31
2022-12-05T16:30:39.654Z,98213.19
2022-12-05T16:33:14.323Z,98213.19
2022-12-05T16:35:42.518Z,98208.50
2022-12-05T16:38:23.178Z,98220.09
2022-12-05T16:40:50.172Z,98219.84
2022-12-05T16:43:32.515Z,98221.81
2022-12-05T16:46:28.149Z,98222.81
2022-12-05T16:49:33.114Z,98213.69
2022-12-05T16:52:07.886Z,98213.44
2022-12-05T16:54:35.169Z,98206.28
2022-12-05T16:57:02.816Z,98207.22
2022-12-05T16:59:33.672Z,98205.22
2022-12-05T17:02:01.965Z,98209.56
2022-12-05T17:04:29.572Z,98206.06
2022-12-05T17:06:57.386Z,98207.00
2022-12-05T17:09:24.487Z,98208.91
2022-12-05T17:11:54.231Z,98211.09
2022-12-05T17:14:21.386Z,98206.88
2022-12-05T17:16:48.612Z,98218.69
2022-12-05T17:19:15.759Z,98215.66
2022-12-05T17:21:43.338Z,98224.44
2022-12-05T17:24:18.377Z,98218.97
2022-12-05T17:26:46.279Z,98222.63
2022-12-05T17:29:13.619Z,98215.47
2022-12-05T17:31:41.019Z,98221.28
2022-12-05T17:34:18.475Z,98225.34
2022-12-05T17:36:45.762Z,98226.69
2022-12-05T17:39:12.954Z,98225.88
2022-12-05T17:41:40.395Z,98231.69
2022-12-05T17:44:07.641Z,98243.00
2022-12-05T17:46:34.981Z,98231.59
2022-12-05T17:49:02.083Z,98228.81
2022-12-05T17:51:30.517Z,98236.94
2022-12-05T17:53:57.958Z,98226.50
2022-12-05T17:56:25.014Z,98230.41
2022-12-05T17:58:52.135Z,98228.19
2022-12-05T18:01:20.008Z,98231.63
2022-12-05T18:03:47.915Z,98230.41
2022-12-05T18:06:15.599Z,98233.44
2022-12-05T18:08:44.786Z,98236.13
2022-12-05T18:11:14.113Z,98226.97
2022-12-05T18:13:41.256Z,98228.19
2022-12-05T18:16:08.609Z,98240.31
2022-12-05T18:18:35.877Z,98238.84
2022-12-05T18:21:11.224Z,98247.03
2022-12-05T18:23:39.073Z,98241.34
2022-12-05T18:26:07.530Z,98249.94
2022-12-05T18:28:39.227Z,98246.28
2022-12-05T18:31:08.615Z,98252.44
2022-12-05T18:33:35.981Z,98247.69
2022-12-05T18:36:08.184Z,98240.31
2022-12-05T18:38:36.219Z,98242.34
2022-12-05T18:41:04.969Z,98249.25
2022-12-05T18:43:32.421Z,98245.06
2022-12-05T18:46:02.179Z,98244.88
2022-12-05T18:48:39.411Z,98242.22
2022-12-05T18:51:13.691Z,98246.16
2022-12-05T18:53:41.816Z,98236.16
2022-12-05T18:56:22.380Z,98242.59
2022-12-05T18:58:58.650Z,98243.06
2022-12-05T19:01:26.886Z,98257.28
2022-12-05T19:03:54.519Z,98250.91
2022-12-05T19:06:24.276Z,98256.81
2022-12-05T19:08:55.125Z,98265.06
2022-12-05T19:11:22.464Z,98261.03
2022-12-05T19:13:49.588Z,98267.66
2022-12-05T19:16:18.417Z,98269.16
2022-12-05T19:18:47.099Z,98272.50
2022-12-05T19:21:14.244Z,98275.53
2022-12-05T19:23:41.420Z,98269.16
2022-12-05T19:26:09.609Z,98265.78
2022-12-05T19:28:37.786Z,98262.34
2022-12-05T19:31:09.911Z,98261.88
2022-12-05T19:33:48.557Z,98258.78
2022-12-05T19:36:19.014Z,98261.53
2022-12-05T19:38:47.603Z,98258.16
2022-12-05T19:41:16.314Z,98263.59
2022-12-05T19:43:44.947Z,98264.59
2022-12-05T19:46:15.524Z,98257.22
2022-12-05T19:48:42.876Z,98263.06
2022-12-05T19:51:09.996Z,98270.69
2022-12-05T19:53:41.113Z,98268.25
2022-12-05T19:56:12.703Z,98274.91
2022-12-05T19:58:40.347Z,98274.06
2022-12-05T20:01:14.244Z,98266.50
2022-12-05T20:03:42.357Z,98272.84
2022-12-05T20:06:10.040Z,98266.69
2022-12-05T20:08:38.019Z,98266.91
2022-12-05T20:11:07.339Z,98266.22
2022-12-05T20:13:46.350Z,98267.69
2022-12-05T20:16:16.337Z,98263.50
2022-12-05T20:18:43.593Z,98266.03
2022-12-05T20:21:12.436Z,98267.31
2022-12-05T20:23:40.071Z,98266.22
2022-12-05T20:26:18.752Z,98261.59
2022-12-05T20:28:45.897Z,98272.69
2022-12-05T20:31:14.168Z,98271.00
2022-12-05T20:33:41.638Z,98258.47
2022-12-05T20:36:11.335Z,98267.56
2022-12-05T20:38:38.691Z,98255.72
2022-12-05T20:41:11.389Z,98252.06
2022-12-05T20:43:38.587Z,98257.00
2022-12-05T20:46:08.568Z,98247.00
2022-12-05T20:48:35.957Z,98244.53
2022-12-05T20:51:07.605Z,98244.53
2022-12-05T20:53:36.181Z,98236.41
2022-12-05T20:56:11.722Z,98235.16
2022-12-05T20:58:39.713Z,98241.78
2022-12-05T21:01:09.859Z,98240.28
2022-12-05T21:03:41.243Z,98244.94
2022-12-05T21:06:10.440Z,98237.84
2022-12-05T21:08:37.653Z,98239.81
2022-12-05T21:11:04.946Z,98237.84
2022-12-05T21:13:32.315Z,98239.00
2022-12-05T21:16:06.690Z,98236.19
2022-12-05T21:18:34.270Z,98233.22
2022-12-05T21:21:03.974Z,98240.13
2022-12-05T21:23:31.381Z,98233.47
2022-12-05T21:26:07.162Z,98235.31
2022-12-05T21:28:35.152Z,98238.59
2022-12-05T21:31:09.003Z,98235.69
2022-12-05T21:33:36.291Z,98232.22
2022-12-05T21:36:04.531Z,98229.03
2022-12-05T21:38:31.896Z,98221.22
2022-12-05T21:40:59.219Z,98225.66
2022-12-05T21:43:26.283Z,98228.38
2022-12-05T21:45:54.494Z,98224.19
2022-12-05T21:48:23.328Z,98229.13
2022-12-05T21:50:50.782Z,98227.91
2022-12-05T21:53:18.340Z,98229.13
2022-12-05T21:55:45.605Z,98231.56
2022-12-05T21:58:12.982Z,98229.88
2022-12-05T22:00:40.514Z,98233.06
2022-12-05T22:03:07.756Z,98230.59
2022-12-05T22:05:34.895Z,98230.34
2022-12-05T22:08:06.198Z,98228.38
2022-12-05T22:10:34.644Z,98218.28
2022-12-05T22:13:01.763Z,98220.03
2022-12-05T22:15:28.967Z,98208.28
2022-12-05T22:17:56.112Z,98201.91
2022-12-05T22:20:23.696Z,98196.50
2022-12-05T22:22:50.750Z,98195.75
2022-12-05T22:25:17.847Z,98189.59
2022-12-05T22:27:44.911Z,98194.03
2022-12-05T22:30:12.290Z,98191.34
2022-12-05T22:32:39.383Z,98183.97
2022-12-05T22:35:06.706Z,98196.75
2022-12-05T22:37:33.804Z,98196.75
2022-12-05T22:40:01.182Z,98194.03
2022-12-05T22:42:28.591Z,98201.91
2022-12-05T22:44:55.670Z,98208.19
2022-12-05T22:47:23.149Z,98201.50
2022-12-05T22:49:50.350Z,98211.25
2022-12-05T22:52:17.514Z,98204.31
2022-12-05T22:54:44.596Z,98205.53
2022-12-05T22:57:11.689Z,98210.22
2022-12-05T22:59:38.752Z,98211.69
2022-12-05T23:02:05.804Z,98207.25
2022-12-05T23:04:32.871Z,98207.72
2022-12-05T23:06:59.936Z,98208.38
2022-12-05T23:09:27.199Z,98200.00
2022-12-05T23:11:54.264Z,98199.50
2022-12-05T23:14:21.383Z,98192.13
2022-12-05T23:16:48.526Z,98192.13
2022-12-05T23:19:15.659Z,98178.41
2022-12-05T23:21:42.917Z,98167.59
2022-12-05T23:24:12.283Z,98167.28
2022-12-05T23:26:44.515Z,98176.16
2022-12-05T23:29:13.140Z,98165.81
2022-12-05T23:31:41.102Z,98159.47
2022-12-05T23:34:08.963Z,98152.56
2022-12-05T23:36:36.201Z,98144.88
2022-12-05T23:39:04.276Z,98139.94
2022-12-05T23:41:31.442Z,98141.16
2022-12-05T23:43:58.567Z,98134.00
2022-12-05T23:46:27.423Z,98132.03
2022-12-05T23:48:55.238Z,98133.03
2022-12-05T23:51:25.289Z,98129.59
2022-12-05T23:53:54.846Z,98124.41
2022-12-05T23:56:24.555Z,98133.91
2022-12-05T23:58:52.063Z,98132.44
